Time;durP1;ratioP1;P1;durP2;ratioP2;P2;SDS_P1;SDS_P2;PMS_P1;PMS_P2;Temp;Humidity;BMP_temperature;BMP_pressure;BME280_temperature;BME280_humidity;BME280_pressure;Samples;Min_cycle;Max_cycle;Signal;HPM_P1;HPM_P2
2023/10/06 00:03:04;;;;;;;6.53;2.53;;;;;;;18.16;51.26;98915.09;4503510;31;20069;-79
2023/10/06 00:05:35;;;;;;;9.18;2.75;;;;;;;18.34;50.66;98910.56;4503534;31;20073;-80
2023/10/06 00:08:05;;;;;;;8.45;2.60;;;;;;;18.31;50.55;98913.38;4503346;32;20052;-80
2023/10/06 00:10:32;;;;;;;9.30;2.60;;;;;;;18.41;50.13;98905.81;4503365;32;20056;-80
2023/10/06 00:12:59;;;;;;;11.98;2.47;;;;;;;18.91;49.18;98912.28;4503300;31;20122;-80
2023/10/06 00:15:43;;;;;;;7.72;2.58;;;;;;;17.18;52.78;98887.78;4502761;32;20079;-79
2023/10/06 00:18:16;;;;;;;11.70;3.30;;;;;;;17.54;52.01;98911.75;4503057;32;20109;-81
2023/10/06 00:20:49;;;;;;;9.07;2.45;;;;;;;17.72;51.81;98922.09;4503278;31;20057;-80
2023/10/06 00:23:21;;;;;;;8.70;2.92;;;;;;;18.41;49.96;98918.87;4503104;31;20064;-80
2023/10/06 00:25:54;;;;;;;8.05;2.37;;;;;;;18.76;49.25;98928.03;4503327;31;20121;-80
2023/10/06 00:28:27;;;;;;;6.95;2.42;;;;;;;18.16;49.92;98920.31;4503055;31;20081;-80
2023/10/06 00:30:57;;;;;;;9.63;2.78;;;;;;;17.89;51.11;98921.97;4503484;31;20056;-80
2023/10/06 00:33:32;;;;;;;9.52;2.40;;;;;;;19.25;47.90;98931.94;4503382;31;20073;-81
2023/10/06 00:36:16;;;;;;;6.87;2.60;;;;;;;20.07;46.31;98933.53;4503008;31;20073;-79
2023/10/06 00:38:51;;;;;;;8.27;2.28;;;;;;;19.35;47.59;98938.22;4502970;32;20061;-80
2023/10/06 00:41:20;;;;;;;8.18;2.30;;;;;;;19.75;46.59;98939.13;4503189;31;20087;-80
2023/10/06 00:43:49;;;;;;;7.95;2.50;;;;;;;19.87;46.58;98942.72;4502855;31;20069;-80
2023/10/06 00:46:18;;;;;;;8.18;2.95;;;;;;;20.07;45.71;98936.97;4502940;32;20068;-81
2023/10/06 00:48:53;;;;;;;7.95;2.72;;;;;;;19.36;47.07;98939.94;4503085;31;20068;-81
2023/10/06 00:51:26;;;;;;;7.20;2.58;;;;;;;20.02;45.73;98943.50;4502831;31;20097;-80
2023/10/06 00:53:57;;;;;;;6.57;2.50;;;;;;;19.62;46.33;98949.56;4503069;31;20087;-80
2023/10/06 00:56:25;;;;;;;10.15;2.97;;;;;;;18.47;48.88;98928.94;4503190;31;20060;-80
2023/10/06 00:58:52;;;;;;;8.80;2.72;;;;;;;19.42;47.09;98941.31;4502596;32;20071;-81
2023/10/06 01:01:21;;;;;;;8.55;2.50;;;;;;;20.13;45.17;98943.59;4489657;32;20083;-81
2023/10/06 01:04:08;;;;;;;8.15;2.80;;;;;;;19.80;45.77;98952.78;4502437;31;20099;-79
2023/10/06 01:06:37;;;;;;;9.25;2.45;;;;;;;19.44;46.43;98949.87;4502921;32;20096;-81
2023/10/06 01:09:22;;;;;;;7.07;2.50;;;;;;;19.04;47.29;98934.16;4502719;32;20056;-81
2023/10/06 01:11:51;;;;;;;8.50;2.60;;;;;;;19.09;47.72;98947.75;4502750;32;20057;-80
2023/10/06 01:14:21;;;;;;;9.13;2.62;;;;;;;18.54;48.40;98939.88;4502928;31;20124;-81
2023/10/06 01:16:50;;;;;;;8.23;2.45;;;;;;;19.20;46.75;98950.53;4502966;31;20120;-80
2023/10/06 01:21:53;;;;;;;9.25;2.83;;;;;;;19.39;46.04;98933.66;4502817;31;20084;-80
2023/10/06 01:24:24;;;;;;;7.97;2.58;;;;;;;18.97;47.11;98953.75;4502768;31;20361;-80
2023/10/06 01:26:59;;;;;;;7.40;2.37;;;;;;;18.82;47.86;98957.31;4502717;32;20100;-80
2023/10/06 01:29:30;;;;;;;9.98;2.58;;;;;;;19.16;46.50;98958.69;4502430;32;20065;-80
2023/10/06 01:31:58;;;;;;;9.15;2.55;;;;;;;18.69;47.60;98954.63;4502424;32;20068;-80
2023/10/06 01:34:27;;;;;;;6.90;2.35;;;;;;;19.14;46.73;98952.69;4502665;31;20091;-81
2023/10/06 01:36:54;;;;;;;8.23;2.40;;;;;;;18.38;48.01;98961.69;4502952;31;20064;-80
2023/10/06 01:39:26;;;;;;;10.15;3.00;;;;;;;19.31;46.15;98961.16;4502536;31;20060;-79
2023/10/06 01:41:53;;;;;;;13.35;3.00;;;;;;;17.47;50.15;98960.03;4502796;31;20075;-80
2023/10/06 01:44:27;;;;;;;8.48;2.45;;;;;;;18.13;48.98;98962.31;4502011;31;20126;-80
2023/10/06 01:46:55;;;;;;;11.32;2.90;;;;;;;18.10;48.61;98959.03;4502689;31;20148;-79
2023/10/06 01:49:23;;;;;;;10.05;2.70;;;;;;;18.56;47.60;98957.13;4502887;31;20068;-81
2023/10/06 01:51:51;;;;;;;9.48;2.80;;;;;;;18.44;47.53;98957.87;4502718;31;20053;-81
2023/10/06 01:54:36;;;;;;;8.23;2.45;;;;;;;18.47;47.60;98957.69;4502155;31;20076;-80
2023/10/06 01:57:06;;;;;;;9.45;2.60;;;;;;;18.56;47.11;98957.13;4502681;31;20092;-80
2023/10/06 01:59:34;;;;;;;6.45;2.40;;;;;;;18.40;47.32;98951.16;4502721;31;20057;-80
2023/10/06 02:02:01;;;;;;;6.95;2.35;;;;;;;18.46;47.23;98953.38;4489038;32;20120;-80
2023/10/06 02:04:39;;;;;;;10.00;3.10;;;;;;;18.46;47.09;98956.00;4502483;31;20116;-80
2023/10/06 02:07:10;;;;;;;8.00;2.55;;;;;;;18.43;47.26;98950.97;4502464;31;20091;-79
2023/10/06 02:09:37;;;;;;;10.07;2.87;;;;;;;18.69;46.90;98955.47;4502487;32;20071;-79
2023/10/06 02:12:05;;;;;;;8.93;2.58;;;;;;;18.49;47.02;98956.63;4502466;31;20097;-79
2023/10/06 02:14:34;;;;;;;7.65;2.72;;;;;;;18.02;48.10;98958.66;4502045;31;20092;-80
2023/10/06 02:17:08;;;;;;;10.40;2.70;;;;;;;18.27;47.93;98958.03;4502583;32;20124;-80
2023/10/06 02:19:37;;;;;;;8.65;2.70;;;;;;;18.51;47.30;98961.81;4502281;32;20065;-80
2023/10/06 02:22:06;;;;;;;8.85;2.67;;;;;;;18.55;47.18;98965.91;4502122;31;20053;-79
2023/10/06 02:24:38;;;;;;;10.25;2.72;;;;;;;18.36;47.38;98967.94;4502334;31;20089;-80
2023/10/06 02:27:05;;;;;;;10.85;3.03;;;;;;;17.73;49.28;98962.94;4502561;31;20061;-80
2023/10/06 02:29:31;;;;;;;10.45;3.12;;;;;;;17.58;49.54;98962.88;4501992;32;20057;-80
2023/10/06 02:32:04;;;;;;;10.00;2.62;;;;;;;17.33;50.07;98957.31;4502488;32;20083;-80
2023/10/06 02:34:35;;;;;;;8.18;2.55;;;;;;;17.63;49.76;98958.22;4502324;31;20144;-80
2023/10/06 02:37:04;;;;;;;10.48;2.85;;;;;;;17.98;48.99;98962.38;4502044;31;20097;-80
2023/10/06 02:39:34;;;;;;;10.30;2.92;;;;;;;17.67;49.68;98956.28;4502221;32;20102;-80
2023/10/06 02:42:13;;;;;;;8.25;2.78;;;;;;;17.66;49.76;98964.19;4502193;31;20057;-79
2023/10/06 02:44:43;;;;;;;9.95;2.40;;;;;;;17.57;50.04;98955.97;4502148;31;20128;-80
2023/10/06 02:47:10;;;;;;;10.80;2.75;;;;;;;17.68;49.84;98957.13;4502187;32;20117;-80
2023/10/06 02:49:48;;;;;;;10.15;2.70;;;;;;;17.92;49.37;98958.34;4501753;32;20064;-80
2023/10/06 02:52:29;;;;;;;10.50;2.83;;;;;;;18.88;47.02;98959.56;4502190;31;20076;-80
2023/10/06 02:55:08;;;;;;;11.52;2.80;;;;;;;18.76;47.23;98959.38;4502192;31;20108;-80
2023/10/06 02:57:36;;;;;;;8.25;2.55;;;;;;;18.23;48.31;98959.16;4500566;32;20087;-80
2023/10/06 03:05:51;;;;;;;8.52;2.58;;;;;;;17.61;50.14;98967.91;4489656;31;20084;-80
2023/10/06 03:08:23;;;;;;;9.30;2.80;;;;;;;16.48;53.39;98961.03;4502142;31;20113;-80
2023/10/06 03:10:50;;;;;;;9.20;2.80;;;;;;;17.95;49.40;98965.16;4501467;32;20061;-79
2023/10/06 03:14:07;;;;;;;9.68;2.95;;;;;;;17.63;50.19;98966.03;4501566;32;20076;-80
2023/10/06 03:16:19;;;;;;;8.85;2.50;;;;;;;17.89;49.28;98972.41;4496136;32;20137;-80
2023/10/06 03:18:47;;;;;;;9.52;3.08;;;;;;;18.09;48.73;98973.03;4501571;31;20116;-79
2023/10/06 03:21:14;;;;;;;8.00;3.00;;;;;;;17.95;48.87;98981.66;4501809;31;20101;-80
2023/10/06 03:23:45;;;;;;;10.80;3.12;;;;;;;17.88;48.75;98980.34;4501670;31;20099;-80
2023/10/06 03:26:27;;;;;;;9.50;2.92;;;;;;;17.64;49.42;98980.75;4501363;32;20087;-80
2023/10/06 03:29:01;;;;;;;9.75;2.95;;;;;;;17.58;49.54;98982.91;4501488;31;20080;-80
2023/10/06 03:31:45;;;;;;;9.43;2.87;;;;;;;17.38;50.34;98986.63;4501180;32;20079;-80
2023/10/06 03:34:24;;;;;;;9.52;3.00;;;;;;;16.97;51.42;98989.72;4501492;32;20082;-80
2023/10/06 03:36:55;;;;;;;9.48;2.78;;;;;;;17.56;50.16;98996.03;4501640;32;20091;-80
2023/10/06 03:39:27;;;;;;;8.68;2.78;;;;;;;17.83;49.36;98992.81;4501275;31;20077;-80
2023/10/06 03:42:07;;;;;;;11.85;3.05;;;;;;;17.56;49.78;99000.41;4501220;32;20069;-80
2023/10/06 03:44:41;;;;;;;11.43;2.97;;;;;;;16.95;51.40;98995.94;4501300;31;20065;-80
2023/10/06 03:47:08;;;;;;;11.27;2.90;;;;;;;16.69;52.10;98999.91;4500938;32;20072;-79
2023/10/06 03:49:37;;;;;;;8.98;3.05;;;;;;;17.40;50.44;99013.44;4501159;31;20062;-79
2023/10/06 03:52:09;;;;;;;13.07;3.80;;;;;;;16.77;51.35;99006.41;4501120;31;20093;-78
2023/10/06 03:54:46;;;;;;;10.63;2.78;;;;;;;16.97;51.37;99010.56;4501263;32;20060;-79
2023/10/06 03:57:15;;;;;;;9.20;3.45;;;;;;;17.04;51.27;99021.53;4501321;31;20076;-80
2023/10/06 03:59:44;;;;;;;9.18;2.97;;;;;;;17.17;50.80;99017.31;4500888;32;20088;-79
2023/10/06 04:02:12;;;;;;;9.13;2.90;;;;;;;17.55;49.61;99028.28;4501023;31;20100;-79
2023/10/06 04:04:39;;;;;;;10.48;3.08;;;;;;;17.27;50.20;99033.31;4501073;32;20053;-80
2023/10/06 04:07:06;;;;;;;9.07;2.85;;;;;;;17.00;50.78;99026.03;4501226;31;20077;-79
2023/10/06 04:09:33;;;;;;;11.07;3.33;;;;;;;16.96;50.98;99034.97;4503560;31;20061;-79
2023/10/06 04:12:01;;;;;;;9.65;2.80;;;;;;;16.82;51.39;99031.41;4503475;31;20061;-80
2023/10/06 04:14:35;;;;;;;9.93;2.65;;;;;;;16.91;51.43;99031.78;4503064;31;20057;-79
2023/10/06 04:17:05;;;;;;;11.50;3.33;;;;;;;16.56;52.28;99030.94;4503449;31;20065;-79
2023/10/06 04:19:34;;;;;;;9.82;3.25;;;;;;;16.44;52.66;99040.22;4503351;31;20100;-79
2023/10/06 04:22:03;;;;;;;9.38;2.80;;;;;;;16.27;53.29;99048.06;4502650;31;20101;-80
2023/10/06 04:24:30;;;;;;;9.50;2.42;;;;;;;15.73;55.07;99049.81;4494561;31;20092;-79
2023/10/06 04:26:57;;;;;;;11.60;2.90;;;;;;;15.62;55.63;99050.34;4488306;31;20439;-80
2023/10/06 04:29:25;;;;;;;10.93;2.72;;;;;;;15.37;56.34;99051.53;4487664;31;20111;-77
2023/10/06 04:31:52;;;;;;;10.73;2.70;;;;;;;15.74;55.36;99050.69;4488128;31;20084;-77
2023/10/06 04:34:22;;;;;;;11.70;3.42;;;;;;;15.31;56.72;99050.03;4487787;31;20077;-77
2023/10/06 04:36:51;;;;;;;9.65;2.50;;;;;;;15.47;56.43;99052.78;4488328;31;20105;-78
2023/10/06 04:39:19;;;;;;;10.85;2.70;;;;;;;15.28;56.95;99053.63;4488189;31;20231;-78
2023/10/06 04:41:47;;;;;;;9.70;2.78;;;;;;;15.84;55.64;99060.59;4487758;32;20100;-79
2023/10/06 04:44:14;;;;;;;9.95;2.62;;;;;;;15.90;55.37;99062.87;4486540;31;20080;-79
2023/10/06 04:46:41;;;;;;;10.88;3.40;;;;;;;16.00;55.21;99068.47;4488055;32;20108;-79
2023/10/06 04:49:08;;;;;;;10.60;3.17;;;;;;;15.85;55.50;99064.88;4487797;31;20159;-78
2023/10/06 04:51:35;;;;;;;12.68;3.17;;;;;;;16.00;55.38;99068.47;4488042;31;20080;-79
2023/10/06 04:54:03;;;;;;;11.73;3.15;;;;;;;15.92;55.37;99068.00;4487384;31;20080;-79
2023/10/06 04:56:32;;;;;;;11.43;2.92;;;;;;;16.22;54.67;99063.06;4487784;31;20115;-79
2023/10/06 04:59:00;;;;;;;9.85;3.05;;;;;;;15.76;55.95;99065.31;4486752;32;20105;-79
2023/10/06 05:01:30;;;;;;;11.10;3.37;;;;;;;16.22;54.64;99064.81;4487967;31;20088;-79
2023/10/06 05:03:57;;;;;;;10.35;3.35;;;;;;;16.53;53.69;99062.38;4486165;31;20107;-79
2023/10/06 05:06:25;;;;;;;9.45;3.10;;;;;;;16.69;53.16;99065.94;4488003;31;20088;-78
2023/10/06 05:08:52;;;;;;;11.77;3.08;;;;;;;16.41;53.88;99076.88;4488030;31;20084;-78
2023/10/06 05:11:23;;;;;;;11.43;3.33;;;;;;;16.82;52.68;99068.75;4487597;31;20418;-79
2023/10/06 05:13:53;;;;;;;11.82;3.25;;;;;;;16.40;53.82;99076.94;4486429;31;20084;-79
2023/10/06 05:16:22;;;;;;;12.85;2.75;;;;;;;16.90;52.86;99078.75;4487584;31;20092;-79
2023/10/06 05:18:51;;;;;;;8.55;2.95;;;;;;;16.39;54.03;99078.72;4487232;31;20510;-79
2023/10/06 05:21:18;;;;;;;10.68;3.45;;;;;;;16.73;53.52;99085.69;4487975;32;20145;-79
2023/10/06 05:23:46;;;;;;;10.70;3.10;;;;;;;16.75;53.67;99089.06;4487041;31;20099;-79
2023/10/06 05:26:14;;;;;;;10.05;3.35;;;;;;;16.44;54.22;99092.31;4487446;31;21094;-79
2023/10/06 05:28:43;;;;;;;12.00;3.92;;;;;;;16.80;53.62;99090.56;4487510;31;20119;-79
2023/10/06 05:31:11;;;;;;;10.38;3.00;;;;;;;16.78;53.13;99088.88;4487427;31;20360;-79
2023/10/06 05:33:40;;;;;;;12.07;2.97;;;;;;;16.28;54.82;99101.00;4486600;31;20084;-79
2023/10/06 05:36:12;;;;;;;10.68;3.10;;;;;;;16.03;55.46;99099.56;4486616;32;20105;-79
2023/10/06 05:38:45;;;;;;;10.27;2.87;;;;;;;16.82;53.64;99107.84;4486387;32;20112;-79
2023/10/06 05:41:12;;;;;;;9.50;2.97;;;;;;;17.25;52.20;99100.38;4487699;31;20081;-79
2023/10/06 05:43:43;;;;;;;11.43;3.12;;;;;;;17.01;52.85;99100.75;4487072;31;20524;-79
2023/10/06 05:46:11;;;;;;;9.82;2.72;;;;;;;17.04;52.49;99102.34;4486141;32;20139;-79
2023/10/06 05:48:39;;;;;;;10.48;2.70;;;;;;;16.87;52.98;99105.81;4487689;31;20092;-79
2023/10/06 05:51:10;;;;;;;11.52;2.80;;;;;;;16.64;53.05;99101.75;4487391;31;20085;-79
2023/10/06 05:53:40;;;;;;;9.88;3.25;;;;;;;17.16;52.37;99108.69;4487457;31;20416;-79
2023/10/06 05:56:07;;;;;;;10.70;2.95;;;;;;;16.97;52.64;99099.22;4485946;32;20549;-79
2023/10/06 05:58:37;;;;;;;9.35;3.05;;;;;;;17.56;51.55;99103.03;4487293;31;20108;-79
2023/10/06 06:01:10;;;;;;;9.48;2.60;;;;;;;17.91;50.43;99100.25;4486424;32;20139;-80
2023/10/06 06:03:44;;;;;;;11.35;2.90;;;;;;;17.62;51.26;99107.03;4486272;32;20076;-80
2023/10/06 06:06:22;;;;;;;9.35;2.97;;;;;;;18.12;49.83;99106.03;4486996;31;20181;-79
2023/10/06 06:08:52;;;;;;;7.72;2.65;;;;;;;18.27;49.71;99109.53;4487539;31;20100;-79
2023/10/06 06:11:20;;;;;;;7.45;2.55;;;;;;;18.32;49.45;99104.91;4487212;31;20155;-79
2023/10/06 06:13:47;;;;;;;13.68;2.92;;;;;;;18.63;49.27;99104.81;4486931;31;20103;-78
2023/10/06 06:16:30;;;;;;;9.80;2.58;;;;;;;19.63;47.08;99110.09;4486514;32;20114;-79
2023/10/06 06:18:58;;;;;;;9.18;2.47;;;;;;;20.12;45.96;99114.84;4486229;32;20149;-79
2023/10/06 06:21:25;;;;;;;8.73;2.40;;;;;;;19.96;46.20;99120.22;4487175;32;20189;-79
2023/10/06 06:23:55;;;;;;;10.73;2.80;;;;;;;20.29;45.76;99109.31;4487142;31;20568;-79
2023/10/06 06:26:23;;;;;;;12.00;2.72;;;;;;;20.00;46.93;99124.34;4487007;31;20096;-79
2023/10/06 06:28:52;;;;;;;8.48;2.45;;;;;;;20.07;46.44;99116.91;4487127;31;20111;-78
2023/10/06 06:31:20;;;;;;;11.35;2.92;;;;;;;19.79;46.72;99123.94;4486948;31;20080;-78
2023/10/06 06:33:48;;;;;;;7.32;2.87;;;;;;;18.96;48.61;99125.53;4485569;32;20092;-78
2023/10/06 06:36:18;;;;;;;11.60;3.05;;;;;;;19.06;47.92;99120.59;4487228;31;20457;-77
2023/10/06 06:38:46;;;;;;;11.95;3.12;;;;;;;18.70;49.07;99126.22;4487102;31;20111;-79
2023/10/06 06:41:13;;;;;;;10.70;3.08;;;;;;;17.88;50.87;99130.00;4486810;31;20144;-78
2023/10/06 06:43:45;;;;;;;7.93;2.50;;;;;;;18.46;49.81;99129.31;4487110;31;20076;-79
2023/10/06 06:46:16;;;;;;;10.45;2.67;;;;;;;18.39;49.90;99134.97;4487113;31;20465;-79
2023/10/06 06:48:44;;;;;;;10.23;2.55;;;;;;;18.66;49.73;99141.25;4486794;31;20147;-79
2023/10/06 06:51:11;;;;;;;6.78;2.35;;;;;;;18.72;49.53;99142.69;4486855;31;20104;-79
2023/10/06 06:53:41;;;;;;;9.27;2.78;;;;;;;19.43;48.51;99150.56;4486788;31;20072;-78
2023/10/06 06:56:10;;;;;;;16.08;2.97;;;;;;;20.20;46.21;99151.84;4486446;31;20670;-78
2023/10/06 06:58:38;;;;;;;10.00;2.70;;;;;;;19.77;47.03;99154.59;4487039;31;20100;-78
2023/10/06 07:01:07;;;;;;;11.63;2.92;;;;;;;19.66;47.35;99154.41;4485546;32;20127;-78
2023/10/06 07:03:34;;;;;;;8.23;2.55;;;;;;;20.21;46.35;99162.25;4484909;31;20088;-79
2023/10/06 07:06:01;;;;;;;8.32;2.30;;;;;;;19.60;46.77;99158.28;4486912;31;20091;-79
2023/10/06 07:08:28;;;;;;;7.95;2.72;;;;;;;19.57;46.75;99158.47;4486469;31;20088;-79
2023/10/06 07:10:56;;;;;;;10.45;2.92;;;;;;;19.10;48.00;99161.31;4486733;32;20133;-79
2023/10/06 07:13:23;;;;;;;10.75;2.92;;;;;;;19.69;47.01;99156.03;4486013;31;20068;-79
2023/10/06 07:15:50;;;;;;;10.25;2.33;;;;;;;19.82;46.92;99160.38;4486299;31;20163;-80
2023/10/06 07:18:19;;;;;;;8.05;2.40;;;;;;;20.69;44.71;99156.53;4486871;31;20201;-80
2023/10/06 07:20:49;;;;;;;8.23;2.37;;;;;;;20.60;44.88;99157.16;4486733;31;20080;-84
2023/10/06 07:23:16;;;;;;;8.57;2.35;;;;;;;21.31;43.96;99167.22;4485782;31;20355;-84
2023/10/06 07:25:43;;;;;;;8.75;2.50;;;;;;;21.94;42.10;99151.34;4486715;31;20435;-85
2023/10/06 07:28:12;;;;;;;8.95;2.15;;;;;;;22.28;41.24;99164.69;4486918;31;20088;-85
2023/10/06 07:30:39;;;;;;;9.02;2.20;;;;;;;22.62;40.39;99151.69;4486231;31;20460;-82
2023/10/06 07:33:06;;;;;;;10.07;2.70;;;;;;;22.51;40.62;99150.69;4486102;31;20115;-81
2023/10/06 07:35:51;;;;;;;9.60;2.33;;;;;;;23.00;39.94;99141.78;4485193;32;20096;-81
2023/10/06 07:38:18;;;;;;;8.55;2.50;;;;;;;22.33;40.65;99152.06;4486066;31;20127;-81
2023/10/06 07:40:45;;;;;;;9.30;2.47;;;;;;;22.39;40.49;99146.34;4486249;31;20163;-82
2023/10/06 07:43:15;;;;;;;8.68;2.35;;;;;;;22.61;40.23;99142.13;4487447;31;20103;-82
2023/10/06 07:45:46;;;;;;;8.40;2.35;;;;;;;22.91;39.69;99131.94;4487960;31;20088;-80
2023/10/06 07:48:14;;;;;;;6.45;2.35;;;;;;;22.27;40.22;99135.91;4488519;32;20097;-81
2023/10/06 07:50:41;;;;;;;8.95;2.50;;;;;;;22.12;40.61;99141.34;4488113;32;20093;-81
2023/10/06 07:53:09;;;;;;;10.27;2.83;;;;;;;23.19;39.67;99145.63;4474064;32;20092;-80
2023/10/06 07:55:37;;;;;;;7.78;2.47;;;;;;;23.33;38.92;99135.69;4488341;31;20147;-81
2023/10/06 07:58:05;;;;;;;7.85;2.30;;;;;;;23.19;39.08;99130.69;4487950;32;20558;-80
2023/10/06 08:00:38;;;;;;;9.38;2.28;;;;;;;23.17;39.01;99148.37;4488426;31;20120;-80
2023/10/06 08:03:06;;;;;;;8.80;2.20;;;;;;;23.49;38.48;99143.22;4488263;31;20088;-81
2023/10/06 08:05:33;;;;;;;10.32;2.70;;;;;;;23.31;38.78;99142.88;4487940;31;20418;-80
2023/10/06 08:08:00;;;;;;;9.45;2.10;;;;;;;22.79;39.62;99156.53;4487277;32;20115;-80
2023/10/06 08:10:30;;;;;;;6.28;2.25;;;;;;;23.03;38.44;99153.84;4488255;31;20168;-79
2023/10/06 08:13:00;;;;;;;8.43;2.22;;;;;;;22.36;39.58;99159.72;4487861;31;20077;-79
2023/10/06 08:15:28;;;;;;;9.45;2.10;;;;;;;22.29;39.29;99155.03;4488212;31;20442;-80
2023/10/06 08:17:55;;;;;;;9.50;2.17;;;;;;;22.44;39.67;99157.38;4488374;32;20132;-80
2023/10/06 08:20:24;;;;;;;7.90;2.40;;;;;;;22.69;38.80;99161.66;4487824;32;20131;-83
2023/10/06 08:22:53;;;;;;;6.50;2.30;;;;;;;22.57;39.32;99154.69;4487982;31;20105;-79
2023/10/06 08:25:23;;;;;;;5.47;1.95;;;;;;;22.44;39.34;99154.75;4488096;31;20096;-80
2023/10/06 08:27:51;;;;;;;7.18;2.30;;;;;;;22.36;39.92;99165.00;4487753;31;20123;-80
2023/10/06 08:30:21;;;;;;;10.00;2.33;;;;;;;21.76;40.46;99170.22;4488287;31;20081;-80
2023/10/06 08:32:53;;;;;;;8.68;2.70;;;;;;;21.64;40.33;99159.62;4487795;31;20069;-79
2023/10/06 08:35:21;;;;;;;9.57;2.65;;;;;;;21.47;40.46;99169.63;4487901;31;20100;-80
2023/10/06 08:37:50;;;;;;;12.32;2.72;;;;;;;21.70;40.49;99170.66;4485987;32;20132;-81
2023/10/06 08:40:26;;;;;;;9.90;2.85;;;;;;;22.01;39.80;99166.66;4486459;31;20096;-82
2023/10/06 08:42:56;;;;;;;9.95;3.90;;;;;;;22.78;39.17;99174.12;4486734;31;20527;-81
2023/10/06 08:45:24;;;;;;;9.05;2.55;;;;;;;23.27;37.66;99178.28;4487900;31;20135;-82
2023/10/06 08:47:59;;;;;;;9.00;2.40;;;;;;;23.46;37.50;99176.88;4487848;31;20096;-82
2023/10/06 08:50:32;;;;;;;10.52;2.65;;;;;;;23.74;37.11;99180.88;4488139;31;20080;-81
2023/10/06 08:53:01;;;;;;;8.00;2.20;;;;;;;24.19;35.43;99179.00;4487748;31;20089;-81
2023/10/06 08:55:28;;;;;;;8.13;2.17;;;;;;;23.38;35.95;99180.09;4485376;32;20115;-83
2023/10/06 08:57:59;;;;;;;7.30;1.90;;;;;;;21.93;38.46;99175.12;4488046;32;20100;-81
2023/10/06 09:00:34;;;;;;;8.80;2.33;;;;;;;22.62;37.92;99184.09;4487967;31;20108;-81
2023/10/06 09:03:08;;;;;;;6.30;2.17;;;;;;;23.18;37.43;99178.16;4485403;31;20413;-81
2023/10/06 09:05:40;;;;;;;8.57;2.35;;;;;;;22.06;38.29;99172.44;4487737;31;20176;-82
2023/10/06 09:08:10;;;;;;;8.02;2.50;;;;;;;22.77;37.08;99174.22;4487591;32;20096;-81
2023/10/06 09:10:40;;;;;;;9.80;2.37;;;;;;;23.59;35.31;99177.63;4488014;31;20164;-80
2023/10/06 09:13:11;;;;;;;10.00;2.30;;;;;;;23.43;35.89;99169.22;4487813;31;20084;-81
2023/10/06 09:15:43;;;;;;;7.15;2.28;;;;;;;23.72;35.91;99175.72;4487474;31;20375;-82
2023/10/06 09:18:18;;;;;;;7.75;2.25;;;;;;;24.52;34.81;99176.25;4487956;31;20110;-81
2023/10/06 09:20:47;;;;;;;9.32;2.10;;;;;;;24.40;34.07;99177.28;4487678;32;20466;-81
2023/10/06 09:23:36;;;;;;;5.85;2.03;;;;;;;25.63;32.28;99173.09;4485532;31;21531;-81
2023/10/06 09:26:06;;;;;;;7.40;2.40;;;;;;;25.73;31.59;99168.66;4487510;32;20104;-80
2023/10/06 09:28:36;;;;;;;8.77;2.12;;;;;;;25.47;32.60;99183.28;4487536;31;20727;-79
2023/10/06 09:31:05;;;;;;;6.85;2.20;;;;;;;25.01;32.01;99174.00;4486183;32;20144;-78
2023/10/06 09:33:35;;;;;;;8.98;2.40;;;;;;;25.16;33.32;99185.91;4487342;32;20068;-77
2023/10/06 09:36:07;;;;;;;10.68;2.10;;;;;;;25.79;31.76;99172.59;4487281;31;20160;-78
2023/10/06 09:38:36;;;;;;;6.82;2.45;;;;;;;25.43;32.43;99179.25;4487728;31;20118;-78
2023/10/06 09:41:05;;;;;;;9.20;2.50;;;;;;;25.32;32.46;99173.09;4486582;32;20137;-78
2023/10/06 09:43:38;;;;;;;8.35;2.42;;;;;;;26.46;31.19;99162.16;4487224;31;20193;-78
2023/10/06 09:46:08;;;;;;;8.25;2.20;;;;;;;26.36;30.97;99163.94;4487567;31;20161;-78
2023/10/06 09:48:36;;;;;;;7.72;2.33;;;;;;;26.58;30.01;99156.72;4487759;32;20087;-78
2023/10/06 09:51:08;;;;;;;7.15;2.47;;;;;;;26.37;30.16;99154.22;4487180;31;20089;-79
2023/10/06 09:53:38;;;;;;;8.40;2.22;;;;;;;26.79;29.83;99152.94;4486480;31;20084;-80
2023/10/06 09:56:11;;;;;;;7.28;2.37;;;;;;;26.24;31.08;99163.22;4487522;31;20104;-80
2023/10/06 09:58:42;;;;;;;7.57;2.33;;;;;;;25.71;32.16;99161.84;4487404;31;20552;-79
2023/10/06 10:01:12;;;;;;;8.25;2.40;;;;;;;25.14;32.94;99155.31;4487568;31;20148;-80
2023/10/06 10:03:40;;;;;;;7.18;2.22;;;;;;;26.10;32.35;99144.28;4473554;32;20148;-79
2023/10/06 10:06:08;;;;;;;6.40;1.98;;;;;;;26.61;31.50;99148.50;4485287;32;20155;-79
2023/10/06 10:08:35;;;;;;;8.82;2.35;;;;;;;26.74;30.79;99139.28;4486444;32;20538;-79
2023/10/06 10:11:14;;;;;;;5.90;2.30;;;;;;;27.21;30.71;99143.81;4487226;31;20103;-79
2023/10/06 10:13:59;;;;;;;8.10;2.20;;;;;;;26.89;30.32;99142.31;4487475;31;20107;-79
2023/10/06 10:16:52;;;;;;;8.13;2.15;;;;;;;26.66;30.34;99133.88;4487447;31;20119;-79
2023/10/06 10:19:22;;;;;;;5.90;2.20;;;;;;;26.07;31.67;99123.41;4487093;31;20092;-79
2023/10/06 10:21:49;;;;;;;6.97;2.15;;;;;;;25.50;32.25;99119.59;4486421;32;20473;-79
2023/10/06 10:24:20;;;;;;;8.15;2.10;;;;;;;25.71;32.27;99125.69;4485821;31;20522;-79
2023/10/06 10:26:50;;;;;;;11.23;3.42;;;;;;;26.09;31.79;99116.16;4487138;31;20101;-79
2023/10/06 10:29:17;;;;;;;10.48;2.78;;;;;;;25.46;32.96;99123.50;4487065;32;20119;-79
2023/10/06 10:31:51;;;;;;;7.68;2.12;;;;;;;26.04;32.48;99121.84;4487448;31;20098;-79
2023/10/06 10:34:33;;;;;;;10.07;2.05;;;;;;;26.71;32.09;99122.88;4486530;32;20076;-79
2023/10/06 10:37:05;;;;;;;7.78;2.20;;;;;;;26.57;30.25;99115.34;4487217;31;20092;-78
2023/10/06 10:39:47;;;;;;;9.15;2.37;;;;;;;26.80;30.30;99117.56;4486988;31;20429;-79
2023/10/06 10:42:18;;;;;;;6.70;2.08;;;;;;;25.93;31.34;99106.09;4487061;31;20109;-79
2023/10/06 10:44:47;;;;;;;7.30;2.40;;;;;;;27.27;30.35;99103.50;4485697;31;20123;-80
2023/10/06 10:47:16;;;;;;;8.07;2.40;;;;;;;27.13;30.47;99107.47;4485888;32;20128;-79
2023/10/06 10:49:46;;;;;;;8.68;2.50;;;;;;;27.13;30.30;99114.59;4487104;31;20157;-79
2023/10/06 10:52:14;;;;;;;7.87;2.55;;;;;;;26.45;30.95;99110.19;4487046;32;20151;-79
2023/10/06 10:54:42;;;;;;;8.23;2.47;;;;;;;26.66;30.84;99110.03;4485377;31;20150;-79
2023/10/06 10:57:13;;;;;;;8.70;2.47;;;;;;;26.92;30.72;99110.28;4487072;31;20092;-79
2023/10/06 11:00:12;;;;;;;8.30;2.50;;;;;;;26.87;30.54;99095.78;4487128;31;20100;-79
2023/10/06 11:02:40;;;;;;;11.60;2.47;;;;;;;27.74;29.10;99096.31;4487098;31;20172;-79
2023/10/06 11:05:08;;;;;;;7.22;2.10;;;;;;;28.13;28.96;99096.03;4486554;31;20498;-79
2023/10/06 11:07:35;;;;;;;7.75;2.22;;;;;;;27.48;30.07;99092.66;4485439;32;20100;-80
2023/10/06 11:10:03;;;;;;;6.75;2.58;;;;;;;26.89;30.60;99097.31;4485796;32;20128;-80
2023/10/06 11:12:30;;;;;;;8.10;2.55;;;;;;;26.73;31.02;99087.31;4486841;31;20169;-80
2023/10/06 11:15:14;;;;;;;5.95;1.90;;;;;;;27.36;30.25;99086.72;4485945;31;20077;-79
2023/10/06 11:17:44;;;;;;;7.82;2.35;;;;;;;27.00;30.27;99075.12;4487474;31;20157;-79
2023/10/06 11:20:27;;;;;;;7.75;2.58;;;;;;;26.06;31.36;99082.06;4488884;31;20153;-81
2023/10/06 11:23:01;;;;;;;7.53;2.17;;;;;;;26.11;31.76;99080.66;4488311;31;20137;-82
2023/10/06 11:25:29;;;;;;;9.02;2.30;;;;;;;26.19;31.39;99077.34;4488410;31;20092;-80
2023/10/06 11:27:58;;;;;;;7.50;2.10;;;;;;;25.74;32.02;99064.66;4488568;31;20115;-81
2023/10/06 11:30:25;;;;;;;7.35;2.30;;;;;;;26.50;31.07;99070.94;4488308;31;20136;-80
2023/10/06 11:32:56;;;;;;;7.62;2.12;;;;;;;26.86;31.06;99065.84;4488454;31;20163;-81
2023/10/06 11:35:24;;;;;;;8.23;2.05;;;;;;;27.29;30.10;99067.09;4488165;31;20084;-81
2023/10/06 11:37:51;;;;;;;6.47;1.90;;;;;;;27.70;29.11;99073.72;4488629;31;20096;-80
2023/10/06 11:40:21;;;;;;;7.47;2.20;;;;;;;27.84;28.97;99064.41;4488776;31;20763;-81
2023/10/06 11:42:48;;;;;;;8.05;2.35;;;;;;;25.82;31.50;99063.94;4487054;32;20184;-79
2023/10/06 11:45:27;;;;;;;6.37;1.90;;;;;;;26.09;31.42;99058.81;4488066;31;20097;-79
2023/10/06 11:47:55;;;;;;;5.68;2.03;;;;;;;27.27;29.64;99055.81;4488559;31;20163;-79
2023/10/06 11:50:28;;;;;;;8.15;2.65;;;;;;;27.30;29.58;99055.50;4487993;32;20343;-79
2023/10/06 11:52:56;;;;;;;6.57;2.28;;;;;;;27.33;29.13;99040.16;4488597;31;20480;-79
2023/10/06 11:55:34;;;;;;;7.43;2.00;;;;;;;28.00;28.63;99046.03;4487067;32;20089;-79
2023/10/06 11:58:04;;;;;;;6.20;1.95;;;;;;;27.72;28.50;99036.47;4488067;31;20107;-79